createdAt,value
2018-10-07T00:01:57.734Z,41.23
2018-10-07T00:06:01.108Z,40.10
2018-10-07T00:10:04.499Z,39.73
2018-10-07T00:14:07.882Z,40.67
2018-10-07T00:18:11.275Z,42.90
2018-10-07T00:22:14.715Z,42.70
2018-10-07T00:26:18.096Z,41.53
2018-10-07T00:30:21.482Z,45.97
2018-10-07T00:34:24.853Z,42.53
2018-10-07T00:38:28.232Z,42.53
2018-10-07T00:42:31.600Z,45.87
2018-10-07T00:46:35.387Z,46.27
2018-10-07T00:50:38.766Z,46.97
2018-10-07T00:54:42.138Z,48.67
2018-10-07T00:58:45.523Z,49.97
2018-10-07T01:02:49.173Z,49.67
2018-10-07T01:06:52.560Z,50.23
2018-10-07T01:10:55.924Z,50.60
2018-10-07T01:14:59.316Z,48.20
2018-10-07T01:19:02.702Z,50.23
2018-10-07T01:23:06.617Z,50.27
2018-10-07T01:27:09.990Z,49.10
2018-10-07T01:31:13.400Z,46.43
2018-10-07T01:35:16.813Z,45.53
2018-10-07T01:39:20.217Z,35.57
2018-10-07T01:43:23.599Z,27.33
2018-10-07T01:47:26.972Z,26.20
2018-10-07T01:51:30.332Z,23.17
2018-10-07T01:55:33.706Z,22.53
2018-10-07T01:59:37.206Z,20.00
2018-10-07T02:03:40.613Z,19.17
2018-10-07T02:07:43.999Z,19.80
2018-10-07T02:11:47.366Z,16.87
2018-10-07T02:15:50.771Z,16.87
2018-10-07T02:19:54.144Z,16.70
2018-10-07T02:23:57.533Z,14.67
2018-10-07T02:28:00.948Z,13.10
2018-10-07T02:32:04.317Z,12.53
2018-10-07T02:36:07.697Z,12.77
2018-10-07T02:40:11.164Z,12.07
2018-10-07T02:44:14.513Z,12.80
2018-10-07T02:48:17.908Z,13.50
2018-10-07T02:52:26.760Z,11.93
2018-10-07T02:56:30.167Z,10.60
2018-10-07T03:00:33.619Z,12.40
2018-10-07T03:04:37.021Z,10.70
2018-10-07T03:08:40.441Z,9.90
2018-10-07T03:12:43.812Z,9.47
2018-10-07T03:16:47.205Z,9.80
2018-10-07T03:20:50.574Z,14.37
2018-10-07T03:24:53.954Z,15.40
2018-10-07T03:28:57.632Z,16.10
2018-10-07T03:33:00.968Z,16.97
2018-10-07T03:37:04.338Z,18.93
2018-10-07T03:41:07.820Z,19.33
2018-10-07T03:45:11.203Z,19.87
2018-10-07T03:49:14.560Z,17.50
2018-10-07T03:53:18.136Z,13.63
2018-10-07T03:57:21.540Z,8.70
2018-10-07T04:01:24.997Z,7.30
2018-10-07T04:05:28.365Z,6.07
2018-10-07T04:09:31.730Z,5.23
2018-10-07T04:13:35.091Z,4.60
2018-10-07T04:17:38.478Z,4.67
2018-10-07T04:21:44.822Z,3.97
2018-10-07T04:25:48.196Z,4.10
2018-10-07T04:29:51.570Z,3.07
2018-10-07T04:33:54.912Z,3.20
2018-10-07T04:37:58.278Z,3.27
2018-10-07T04:42:01.681Z,2.90
2018-10-07T04:46:05.313Z,3.10
2018-10-07T04:50:08.920Z,3.27
2018-10-07T04:54:12.287Z,2.73
2018-10-07T04:58:15.677Z,3.03
2018-10-07T05:02:19.058Z,3.07
2018-10-07T05:06:24.548Z,3.07
2018-10-07T05:10:45.889Z,2.90
2018-10-07T05:14:49.300Z,2.97
2018-10-07T05:18:52.698Z,3.03
2018-10-07T05:22:56.095Z,2.87
2018-10-07T05:26:59.472Z,2.83
2018-10-07T05:31:02.936Z,3.10
2018-10-07T05:35:06.320Z,2.80
2018-10-07T05:39:10.987Z,3.00
2018-10-07T05:43:14.364Z,3.50
2018-10-07T05:47:17.735Z,3.10
2018-10-07T05:51:21.903Z,2.50
2018-10-07T05:55:25.295Z,2.60
2018-10-07T05:59:29.573Z,3.20
2018-10-07T06:03:51.096Z,3.10
2018-10-07T06:07:54.480Z,3.10
2018-10-07T06:11:58.066Z,2.40
2018-10-07T06:16:01.501Z,2.43
2018-10-07T06:20:04.963Z,1.80
2018-10-07T06:24:08.348Z,1.90
2018-10-07T06:28:11.749Z,1.90
2018-10-07T06:32:15.248Z,2.10
2018-10-07T06:36:18.617Z,1.60
2018-10-07T06:40:22.114Z,2.00
2018-10-07T06:44:25.497Z,1.60
2018-10-07T06:48:28.847Z,1.43
2018-10-07T06:52:33.363Z,1.40
2018-10-07T06:56:36.724Z,1.50
2018-10-07T07:00:40.144Z,1.27
2018-10-07T07:04:44.196Z,1.10
2018-10-07T07:08:47.641Z,0.90
2018-10-07T07:12:51.018Z,0.97
2018-10-07T07:16:54.418Z,1.30
2018-10-07T07:20:57.766Z,1.10
2018-10-07T07:25:01.140Z,0.97
2018-10-07T07:29:04.505Z,0.80
2018-10-07T07:33:07.873Z,0.90
2018-10-07T07:37:11.231Z,1.33
2018-10-07T07:41:14.584Z,1.00
2018-10-07T07:45:17.935Z,0.87
2018-10-07T07:49:21.406Z,0.90
2018-10-07T07:53:24.764Z,0.70
2018-10-07T07:57:28.133Z,0.90
2018-10-07T08:01:31.471Z,1.07
2018-10-07T08:05:34.882Z,1.00
2018-10-07T08:09:38.264Z,1.00
2018-10-07T08:13:41.623Z,0.90
2018-10-07T08:17:46.350Z,0.93
2018-10-07T08:21:49.708Z,1.10
2018-10-07T08:25:53.056Z,1.20
2018-10-07T08:29:56.439Z,4.93
2018-10-07T08:33:59.527Z,1.90
2018-10-07T08:38:02.888Z,0.90
2018-10-07T08:42:06.288Z,0.77
2018-10-07T08:46:09.658Z,0.80
2018-10-07T08:50:13.020Z,1.10
2018-10-07T08:54:16.372Z,0.93
2018-10-07T08:58:19.779Z,0.77
2018-10-07T09:02:23.165Z,1.23
2018-10-07T09:06:27.274Z,0.80
2018-10-07T09:10:30.703Z,1.07
2018-10-07T09:14:34.180Z,0.80
2018-10-07T09:18:37.520Z,0.90
2018-10-07T09:22:40.889Z,1.10
2018-10-07T09:26:44.273Z,0.90
2018-10-07T09:30:47.685Z,0.93
2018-10-07T09:34:51.265Z,0.70
2018-10-07T09:38:54.362Z,1.33
2018-10-07T09:42:57.737Z,1.13
2018-10-07T09:47:01.146Z,0.80
2018-10-07T09:51:05.440Z,1.00
2018-10-07T09:55:10.045Z,1.20
2018-10-07T09:59:14.071Z,1.07
2018-10-07T10:03:17.837Z,0.90
2018-10-07T10:07:22.087Z,1.10
2018-10-07T10:11:25.628Z,0.93
2018-10-07T10:15:28.946Z,0.90
2018-10-07T10:19:51.224Z,1.20
2018-10-07T10:24:06.764Z,1.00
2018-10-07T10:28:17.538Z,1.20
2018-10-07T10:32:27.712Z,1.10
2018-10-07T10:36:37.645Z,1.50
2018-10-07T10:40:52.548Z,0.80
2018-10-07T10:44:59.541Z,1.00
2018-10-07T10:49:16.524Z,1.43
2018-10-07T10:53:42.014Z,0.80
2018-10-07T10:57:47.770Z,0.93
2018-10-07T11:02:01.466Z,0.90
2018-10-07T11:06:15.368Z,0.90
2018-10-07T11:10:52.091Z,0.83
2018-10-07T11:15:00.709Z,1.20
2018-10-07T11:19:17.120Z,1.33
2018-10-07T11:23:56.563Z,1.23
2018-10-07T11:28:11.216Z,0.90
2018-10-07T11:32:21.203Z,1.10
2018-10-07T11:36:35.572Z,1.03
2018-10-07T11:40:53.847Z,1.10
2018-10-07T11:45:31.482Z,1.00
2018-10-07T11:49:37.923Z,1.13
2018-10-07T11:53:44.761Z,0.80
2018-10-07T11:57:47.880Z,0.83
2018-10-07T12:01:50.985Z,1.30
2018-10-07T12:05:54.098Z,1.23
2018-10-07T12:09:57.240Z,1.43
2018-10-07T12:14:00.378Z,1.33
2018-10-07T12:18:04.831Z,0.90
2018-10-07T12:22:08.671Z,1.53
2018-10-07T12:26:11.918Z,1.20
2018-10-07T12:30:15.054Z,1.70
2018-10-07T12:34:18.192Z,0.90
2018-10-07T12:38:21.998Z,0.93
2018-10-07T12:42:25.491Z,1.20
2018-10-07T12:46:28.866Z,1.07
2018-10-07T12:50:32.226Z,1.10
2018-10-07T12:54:35.697Z,1.43
2018-10-07T12:58:38.736Z,1.27
2018-10-07T13:02:42.108Z,1.40
2018-10-07T13:06:45.490Z,1.43
2018-10-07T13:10:48.895Z,1.07
2018-10-07T13:14:52.267Z,1.30
2018-10-07T13:18:55.633Z,1.20
2018-10-07T13:22:59.001Z,1.33
2018-10-07T13:27:02.347Z,1.23
2018-10-07T13:31:05.838Z,0.97
2018-10-07T13:35:20.764Z,1.00
2018-10-07T13:39:24.137Z,1.80
2018-10-07T13:43:27.550Z,1.53
2018-10-07T13:47:30.924Z,3.53
2018-10-07T13:51:34.346Z,4.60
2018-10-07T13:55:37.706Z,1.60
2018-10-07T13:59:41.083Z,2.00
2018-10-07T14:03:44.485Z,1.17
2018-10-07T14:07:47.844Z,1.27
2018-10-07T14:11:51.219Z,1.37
2018-10-07T14:15:54.708Z,1.17
2018-10-07T14:19:58.084Z,1.17
2018-10-07T14:24:01.522Z,1.53
2018-10-07T14:28:04.851Z,1.43
2018-10-07T14:32:08.216Z,0.90
2018-10-07T14:36:11.604Z,1.47
2018-10-07T14:40:14.985Z,1.53
2018-10-07T14:44:18.358Z,1.27
2018-10-07T14:48:21.708Z,1.90
2018-10-07T14:52:25.065Z,1.30
2018-10-07T14:56:28.440Z,1.30
2018-10-07T15:00:31.804Z,1.27
2018-10-07T15:04:35.160Z,0.70
2018-10-07T15:08:38.631Z,1.30
2018-10-07T15:12:42.004Z,0.90
2018-10-07T15:16:45.399Z,1.10
2018-10-07T15:20:48.773Z,1.40
2018-10-07T15:24:52.129Z,1.93
2018-10-07T15:28:55.491Z,1.13
2018-10-07T15:32:58.859Z,1.20
2018-10-07T15:37:02.228Z,1.43
2018-10-07T15:41:05.719Z,1.50
2018-10-07T15:45:09.094Z,1.57
2018-10-07T15:49:12.485Z,1.60
2018-10-07T15:53:15.840Z,1.40
2018-10-07T15:57:19.608Z,1.43
2018-10-07T16:01:22.991Z,1.50
2018-10-07T16:05:26.348Z,2.13
2018-10-07T16:09:29.716Z,1.97
2018-10-07T16:13:33.060Z,1.83
2018-10-07T16:17:36.444Z,1.57
2018-10-07T16:21:39.801Z,3.00
2018-10-07T16:25:43.167Z,2.00
2018-10-07T16:29:46.539Z,1.80
2018-10-07T16:33:49.880Z,1.57
2018-10-07T16:37:53.247Z,1.33
2018-10-07T16:41:56.633Z,1.37
2018-10-07T16:45:59.996Z,1.73
2018-10-07T16:50:03.447Z,1.90
2018-10-07T16:54:06.859Z,2.03
2018-10-07T16:58:10.225Z,1.93
2018-10-07T17:02:13.603Z,1.70
2018-10-07T17:06:16.991Z,1.40
2018-10-07T17:10:20.364Z,1.83
2018-10-07T17:14:23.703Z,1.60
2018-10-07T17:18:27.081Z,1.60
2018-10-07T17:22:30.461Z,1.77
2018-10-07T17:26:35.181Z,2.20
2018-10-07T17:30:38.548Z,1.87
2018-10-07T17:34:41.880Z,2.30
2018-10-07T17:38:45.257Z,2.23
2018-10-07T17:42:48.692Z,2.33
2018-10-07T17:46:52.012Z,2.00
2018-10-07T17:50:55.413Z,1.90
2018-10-07T17:54:58.779Z,2.00
2018-10-07T17:59:02.129Z,2.20
2018-10-07T18:03:05.510Z,2.10
2018-10-07T18:07:08.901Z,2.03
2018-10-07T18:11:12.424Z,1.93
2018-10-07T18:15:15.804Z,1.77
2018-10-07T18:19:19.186Z,2.73
2018-10-07T18:23:22.641Z,2.10
2018-10-07T18:27:26.071Z,2.40
2018-10-07T18:31:29.464Z,2.40
2018-10-07T18:35:32.796Z,2.10
2018-10-07T18:39:36.161Z,2.17
2018-10-07T18:43:39.516Z,2.23
2018-10-07T18:47:42.881Z,2.20
2018-10-07T18:51:46.629Z,2.17
2018-10-07T18:55:50.011Z,3.00
2018-10-07T18:59:53.417Z,2.40
2018-10-07T19:03:56.811Z,3.00
2018-10-07T19:08:00.193Z,2.97
2018-10-07T19:12:03.566Z,3.20
2018-10-07T19:16:07.054Z,2.90
2018-10-07T19:20:11.465Z,2.03
2018-10-07T19:24:14.864Z,2.87
2018-10-07T19:28:18.243Z,2.60
2018-10-07T19:32:21.611Z,2.40
2018-10-07T19:36:24.960Z,2.77
2018-10-07T19:40:28.330Z,2.33
2018-10-07T19:44:31.687Z,3.00
2018-10-07T19:48:35.359Z,2.70
2018-10-07T19:52:38.763Z,2.03
2018-10-07T19:56:42.097Z,2.47
2018-10-07T20:00:45.493Z,2.60
2018-10-07T20:04:48.857Z,2.80
2018-10-07T20:08:52.253Z,2.67
2018-10-07T20:12:55.618Z,2.40
2018-10-07T20:16:58.976Z,2.40
2018-10-07T20:21:02.452Z,3.00
2018-10-07T20:25:05.876Z,4.17
2018-10-07T20:29:09.248Z,4.17
2018-10-07T20:33:12.603Z,3.90
2018-10-07T20:37:15.955Z,3.13
2018-10-07T20:41:19.338Z,3.23
2018-10-07T20:45:22.716Z,2.90
2018-10-07T20:49:26.675Z,3.17
2018-10-07T20:53:30.165Z,3.27
2018-10-07T20:57:33.679Z,3.00
2018-10-07T21:01:37.067Z,2.70
2018-10-07T21:05:40.479Z,3.13
2018-10-07T21:09:44.328Z,2.60
2018-10-07T21:13:47.784Z,2.83
2018-10-07T21:17:51.147Z,2.43
2018-10-07T21:21:54.579Z,2.20
2018-10-07T21:25:57.936Z,2.37
2018-10-07T21:30:01.309Z,2.50
2018-10-07T21:34:04.671Z,2.00
2018-10-07T21:38:08.045Z,2.50
2018-10-07T21:42:11.892Z,2.30
2018-10-07T21:46:15.241Z,2.40
2018-10-07T21:50:19.564Z,2.23
2018-10-07T21:54:22.957Z,2.97
2018-10-07T21:58:26.334Z,2.50
2018-10-07T22:02:32.255Z,2.57
2018-10-07T22:06:35.969Z,2.60
2018-10-07T22:10:39.336Z,2.50
2018-10-07T22:14:42.792Z,2.30
2018-10-07T22:18:46.459Z,2.80
2018-10-07T22:22:50.067Z,2.70
2018-10-07T22:26:53.517Z,2.23
2018-10-07T22:30:56.944Z,2.43
2018-10-07T22:35:00.296Z,2.33
2018-10-07T22:39:04.071Z,2.13
